Ashland, Montana
Current Conditions -  °F | °C
As of 12:53 AM on Sunday 23 Nov 2014 (Local Time) from KMLS Reporting Station
Overcast Overcast  
Wind Chill: -2°   Ceiling: 6000
Heat Index:   Visibility: 10mi
Dew Point: -3°   Wind: 28mph
Humidity: 60%   Direction: 280°W
Pressure: 29.55"   Gusts: 39mph
Location:  45.62°N, 106.31°W
Report Text: KMLS 230753Z AUTO 28024G34KT 10SM BKN060 OVC070 04/M03 A2955 RMK AO2 PK WND 28036/0730 SLP017 T00391033
Loading
Personal Weather Stations






























Interactive Weather Map New forecast layout! Learn more

10-Day Weather Forecast

Advertisements
Track Severe Weather on mobile